Weather at Sikeston Memorial Municipal Airport

Public forecast

Using degrees Fahrenheit for public forecast. Weather courtesy of forecast.io.

Current aviation weather report (METAR) for Sikeston Memorial Municipal Airport

Retrieved 2021/11/29 14:55 UTC (14 minutes ago):

KSIK 291455Z AUTO 17005KT 10SM CLR 04/M03 A3024 RMK AO2 TSNO

Closest aviation forecast (TAF) to Sikeston Memorial Municipal Airport

Closest forecast is Cape Girardeau Regional Airport, 19.6 nm (36.3 km) N. Retrieved 2021/11/29 12:46 UTC (2 hours ago):

TAF KCGI 291143Z 2912/3012 18004KT P6SM FEW250 FM291900 19010G18KT P6SM FEW250 FM300200 20009KT P6SM SKC FM301000 23005KT P6SM SKC